x

8557380 - Lewes, De (lwsd1) Weather Station

2:18am - Tue 31st Mar 2015 All times are EDT. -4 hours from GMT.

  • Wind
    7mph, 9mph gusts
  • Sea Temp 42°f
  • Air Temp 46°f
  • Sea Pressure 1013mb
  • 8557380 - Lewes, De
  • 8557380 - Lewes, De

More Historic Weather Station data

Upgrade to MSW Pro to gain access to the past 30 days of data for over 8000 Wavebouys and Weather Stations around the globe.

Join Pro

Comparision Forecast

View Surf forecast
   
Tue 03/31 2:18am 7 9 mph 1013mb 42f 46f
2:12am 8 10 mph 1013.1mb 42f 46f
2:00am 8 10 mph 1013.1mb 42f 47f
1:54am 7 10 mph 1013.1mb 42f 46f
1:48am 7 10 mph 1013.2mb 42f 47f
1:42am 9 10 mph 1013.2mb 42f 47f
1:36am 8 11 mph 1013.2mb 42f 47f
1:30am 8 10 mph 1013.2mb 42f 47f
1:24am 8 9 mph 1013.2mb 42f 47f
1:18am 8 10 mph 1013.3mb 42f 47f
1:12am 8 9 mph 1013.2mb 42f 47f
1:06am 9 13 mph 1013.2mb 42f 48f
1:00am 9 11 mph 1013.3mb 42f 48f
12:54am 9 13 mph 1013.3mb 42f 48f
12:48am 8 11 mph 1013.4mb 42f 48f
12:42am 7 10 mph 1013.4mb 42f 48f
12:36am 8 10 mph 1013.4mb 42f 48f
12:30am 8 10 mph 1013.5mb 42f 49f
12:24am 8 9 mph 1013.5mb 42f 49f
12:18am 8 9 mph 1013.5mb 42f 49f
12:12am 8 10 mph 1013.5mb 42f 50f
12:06am 9 13 mph 1013.6mb 42f 50f
12:00am 9 10 mph 1013.6mb 42f 50f
Mon 03/30 11:54pm 9 11 mph 1013.6mb 42f 50f
11:48pm 9 11 mph 1013.6mb 42f 50f
11:36pm 8 10 mph 1013.7mb 42f 50f
11:30pm 8 9 mph 1013.8mb 42f 50f
11:24pm 9 11 mph 1013.7mb 42f 51f
11:18pm 13 22 mph 1013.7mb 42f 51f
11:12pm 9 10 mph 1013.7mb 42f 50f
11:06pm 9 11 mph 1013.8mb 42f 50f
11:00pm 9 10 mph 1013.9mb 42f 50f
10:54pm 10 13 mph 1013.9mb 42f 50f
10:48pm 11 13 mph 1013.9mb 42f 51f
10:42pm 11 14 mph 1013.9mb 42f 51f
10:36pm 13 16 mph 1014mb 42f 51f
10:30pm 13 14 mph 1014mb 42f 51f
10:24pm 13 14 mph 1014mb 42f 51f
10:18pm 11 14 mph 1014mb 42f 51f
10:12pm 11 13 mph 1013.9mb 42f 50f
10:06pm 11
mph
1013.8mb 42f 50f
10:00pm 11 13 mph 1013.7mb 42f 51f
9:54pm 11 13 mph 1013.6mb 42f 51f
9:48pm 10 13 mph 1013.5mb 42f 51f
9:42pm 10 11 mph 1013.4mb 42f 51f
9:36pm 10 11 mph 1013.3mb 42f 52f
9:30pm 10
mph
1013.3mb 42f 52f
9:24pm 10 11 mph 1013.2mb 42f 52f
9:18pm 11 14 mph 1013.1mb 42f 53f
9:12pm 11
mph
1012.9mb 42f 53f
9:06pm 9 13 mph 1012.8mb 42f 53f
9:00pm 7
mph
1012.6mb 42f 52f
8:54pm 7
mph
1012.5mb 42f 52f
8:48pm 6 7 mph 1012.3mb 42f 53f
8:42pm 7
mph
1012.1mb 42f 53f
8:36pm 6 7 mph 1012mb 42f 53f
8:30pm 6
mph
1011.8mb 42f 53f
8:24pm 5
mph
1011.7mb 42f 53f
8:18pm 5
mph
1011.6mb 42f 53f
8:12pm 3
mph
1011.4mb 41f 53f
8:06pm 3
mph
1011.3mb 41f 52f
8:00pm 3 5 mph 1011.2mb 41f 53f
7:54pm 5 6 mph 1011.1mb 41f 53f
7:48pm 5 6 mph 1011mb 41f 51f
7:42pm 5 7 mph 1011mb 41f 50f
7:36pm 5 6 mph 1010.9mb 41f 50f
7:30pm 6
mph
1010.9mb 41f 50f
7:24pm 5 6 mph 1010.9mb 41f 49f
7:18pm 6 7 mph 1010.8mb 41f 49f
7:12pm 5 6 mph 1010.8mb 41f 49f
7:06pm 8 9 mph 1010.8mb 41f 50f
7:00pm 10 11 mph 1010.8mb 41f 51f
6:54pm 13 15 mph 1010.7mb 41f 52f
6:48pm 15 16 mph 1010.7mb 41f 52f
6:42pm 18 21 mph 1010.7mb 41f 54f
6:36pm 14 18 mph 1010.7mb 41f 53f
6:30pm 13 14 mph 1010.7mb 41f 53f
6:24pm 13 14 mph 1010.6mb 41f 55f
6:18pm 15 16 mph 1010.5mb 42f 56f
6:12pm 17 20 mph 1010.5mb 42f 56f
6:06pm 17 20 mph 1010.5mb 42f 55f
6:00pm 21 24 mph 1010.4mb 42f 56f
5:54pm 21 24 mph 1010.4mb 42f 56f
5:48pm 17 23 mph 1010.3mb 42f 55f
5:42pm 18 23 mph 1010.3mb 42f 56f
5:36pm 17 23 mph 1010.3mb 42f 55f
5:30pm 22 26 mph 1010.2mb 42f 56f
5:24pm 20 22 mph 1010.2mb 42f 55f
5:18pm 16 18 mph 1010.2mb 41f 54f
5:12pm 16 18 mph 1010.3mb 41f 55f
5:06pm 15 17 mph 1010.2mb 41f 54f
5:00pm 17 20 mph 1010.2mb 40f 55f
4:54pm 17 21 mph 1010.2mb 40f 55f
4:48pm 18 22 mph 1010.2mb 40f 55f
4:42pm 18 20 mph 1010.2mb 40f 53f
4:36pm 17 20 mph 1010.2mb 40f 53f
4:30pm 24 26 mph 1010.1mb 40f 55f
4:24pm 21 26 mph 1010.2mb 40f 55f
4:18pm 14 18 mph 1010.1mb 40f 54f
4:12pm 21 24 mph 1010mb 40f 56f
4:06pm 21 25 mph 1010.1mb 40f 53f
4:00pm 22 25 mph 1010mb 40f 53f
3:54pm 16 26 mph 1010.1mb 40f 54f
3:48pm 23 28 mph 1010.1mb 40f 54f
3:42pm 16 20 mph 1010.2mb 40f 53f
3:36pm 18 22 mph 1010.2mb 40f 54f
3:30pm 24 29 mph 1010.2mb 40f 55f
3:24pm 21 28 mph 1010.3mb 40f 54f
3:18pm 18 22 mph 1010.4mb 40f 53f
3:12pm 20 23 mph 1010.4mb 40f 52f
3:06pm 20 23 mph 1010.4mb 40f 52f
3:00pm 17 21 mph 1010.5mb 40f 53f
2:54pm 23 31 mph 1010.5mb 40f 54f
2:48pm 17 22 mph 1010.6mb 40f 53f
2:42pm 18 22 mph 1010.6mb 40f 53f
2:36pm 16 20 mph 1010.7mb 40f 52f
2:30pm 16 22 mph 1010.9mb 40f 53f
2:24pm 13 15 mph 1010.9mb 40f 52f
2:18pm 15 22 mph 1011mb 40f 51f
2:12pm 15 20 mph 1011mb 40f 52f
2:06pm 16 18 mph 1011.1mb 40f 53f
2:00pm 15 18 mph 1011.2mb 40f 53f
1:54pm 10 14 mph 1011.2mb 40f 52f
1:48pm 14 18 mph 1011.3mb 40f 52f
1:42pm 16 21 mph 1011.4mb 40f 52f
1:36pm 16 20 mph 1011.6mb 40f 51f
1:30pm 13 16 mph 1011.6mb 40f 52f
1:24pm 11 15 mph 1011.7mb 40f 52f
1:18pm 14 17 mph 1011.7mb 40f 51f
1:12pm 17 23 mph 1011.8mb 40f 50f
1:06pm 14 18 mph 1011.8mb 40f 50f
1:00pm 15 20 mph 1011.8mb 40f 50f
12:54pm 14 20 mph 1011.8mb 40f 50f
12:48pm 11 20 mph 1011.9mb 40f 50f
12:42pm 11 21 mph 1012.1mb 40f 49f
12:36pm 14 22 mph 1012.1mb 40f 49f
12:30pm 14 18 mph 1012.2mb 40f 48f
12:24pm 17 23 mph 1012.2mb 40f 48f
12:18pm 13 20 mph 1012.3mb 40f 48f
12:12pm 16 22 mph 1012.4mb 40f 47f
12:06pm 15 23 mph 1012.4mb 40f 48f
12:00pm 14 23 mph 1012.5mb 40f 47f
11:54am 16 23 mph 1012.6mb 40f 47f
11:48am 17 25 mph 1012.6mb 40f 47f
11:42am 18 26 mph 1012.6mb 40f 46f
11:36am 10 15 mph 1012.6mb 40f 46f
11:30am 16 21 mph 1012.7mb 40f 46f
11:24am 16 23 mph 1013mb 40f 45f
11:18am 15 23 mph 1013.1mb 40f 44f
11:12am 14 21 mph 1013.1mb 40f 44f
11:06am 15 26 mph 1013.2mb 40f 44f
11:00am 17 24 mph 1013.3mb 40f 44f
10:54am 14 23 mph 1013.2mb 40f 44f
10:48am 16 24 mph 1013.4mb 40f 43f
10:42am 15 24 mph 1013.6mb 40f 43f
10:36am 14 21 mph 1013.5mb 40f 43f
10:30am 14 21 mph 1013.6mb 40f 42f
10:24am 9 15 mph 1013.7mb 40f 42f
10:18am 11 25 mph 1013.7mb 40f 42f
10:12am 13 20 mph 1013.7mb 40f 41f
10:06am 15 23 mph 1013.7mb 40f 41f
10:00am 10 18 mph 1013.8mb 40f 41f
9:54am 11 18 mph 1013.7mb 40f 41f
9:48am 13 20 mph 1013.7mb 40f 40f
9:42am 11 22 mph 1013.7mb 40f 40f
9:36am 9 15 mph 1013.8mb 40f 40f
9:30am 9 16 mph 1013.9mb 40f 40f
9:24am 7 15 mph 1013.9mb 40f 40f
9:18am 6 18 mph 1014mb 40f 40f
9:12am 7 13 mph 1014mb 40f 40f
9:06am 6 13 mph 1014.2mb 40f 39f
9:00am 10 17 mph 1014.3mb 40f 39f
8:54am 9 14 mph 1014.2mb 40f 39f
8:48am 10 16 mph 1014.3mb 40f 39f
8:42am 9 14 mph 1014.4mb 40f 39f
8:36am 10 16 mph 1014.5mb 40f 38f
8:30am 9 17 mph 1014.5mb 40f 38f
8:24am 8 15 mph 1014.4mb 40f 38f
8:18am 8 14 mph 1014.6mb 40f 38f
8:12am 8 13 mph 1014.6mb 40f 38f
8:06am 9 15 mph 1014.7mb 40f 38f
8:00am 8 13 mph 1014.7mb 40f 38f
7:54am 7 14 mph 1014.7mb 40f 38f
7:48am 6 10 mph 1014.6mb 41f 38f
7:42am 8 11 mph 1014.6mb 41f 39f
7:36am 8 11 mph 1014.8mb 41f 39f
7:30am 10 16 mph 1015mb 41f 39f
7:24am 9 15 mph 1015.2mb 41f 39f
7:18am 9 15 mph 1015.3mb 41f 39f
7:12am 10 15 mph 1015.4mb 41f 39f
7:06am 10 15 mph 1015.5mb 41f 39f
7:00am 11 17 mph 1015.5mb 41f 40f
6:54am 11 16 mph 1015.5mb 41f 41f
6:48am 9 14 mph 1015.5mb 41f 42f
6:42am 14 24 mph 1015.5mb 41f 42f
6:36am 9 14 mph 1015.6mb 40f 42f
6:30am 9 14 mph 1015.6mb 40f 42f
6:24am 8 11 mph 1015.5mb 40f 42f
6:18am 8 18 mph 1015.5mb 40f 42f
6:12am 8 13 mph 1015.5mb 40f 42f
6:06am 9 13 mph 1015.7mb 40f 42f
6:00am 9 16 mph 1016mb 41f 41f
5:54am 9 15 mph 1016.1mb 41f 41f
5:48am 7 10 mph 1016.4mb 41f 41f
5:42am 8 13 mph 1016.4mb 41f 41f
5:36am 9 14 mph 1016.5mb 41f 41f
5:30am 8 11 mph 1016.7mb 41f 41f
5:24am 8 11 mph 1016.8mb 41f 41f
5:18am 9 16 mph 1016.9mb 41f 41f
5:12am 8 14 mph 1017mb 42f 40f
5:06am 7 14 mph 1017.1mb 42f 40f
5:00am 8 13 mph 1017.3mb 42f 40f
4:54am 8 13 mph 1017.6mb 42f 40f
4:48am 7 11 mph 1017.6mb 42f 40f
4:42am 7 10 mph 1017.7mb 42f 40f
4:36am 7 13 mph 1017.9mb 42f 39f
4:30am 8 11 mph 1018.1mb 42f 39f
4:24am 6 10 mph 1018.3mb 42f 39f
4:18am 9 14 mph 1018.3mb 42f 39f
4:06am 9 17 mph 1018.8mb 42f 39f
4:00am 7 11 mph 1018.7mb 42f 39f
3:54am 10 16 mph 1018.6mb 42f 39f
3:48am 8 14 mph 1018.5mb 42f 39f
3:42am 8 13 mph 1018.4mb 42f 39f
3:36am 9 13 mph 1018.5mb 42f 39f
3:30am 9 14 mph 1018.8mb 42f 38f
3:24am 7 13 mph 1018.9mb 42f 38f
3:18am 8 14 mph 1018.8mb 41f 38f
3:12am 8 16 mph 1019.1mb 41f 38f
2:54am 6 10 mph 1019.6mb 41f 37f
2:42am 8 13 mph 1019.7mb 41f 37f
2:36am 6 9 mph 1019.9mb 41f 37f
2:30am 7 13 mph 1020mb 41f 37f
2:18am 8 13 mph 1019.9mb 41f 37f
2:06am 8 14 mph 1019.9mb 41f 37f
1:54am 8 13 mph 1020.1mb 41f 37f
1:48am 8 14 mph 1020.3mb 41f 37f
1:42am 8 13 mph 1020.5mb 41f 36f
1:36am 6 10 mph 1020.7mb 41f 36f
1:30am 6 9 mph 1020.9mb 41f 36f
1:24am 8 13 mph 1021.1mb 41f 36f
1:18am 6 11 mph 1021.5mb 41f 36f
1:12am 7 11 mph 1021.6mb 41f 36f
1:06am 6 10 mph 1021.9mb 41f 35f
1:00am 5 9 mph 1021.9mb 41f 35f
12:54am 6 10 mph 1022mb 41f 35f
12:48am 6 8 mph 1021.9mb 41f 35f
12:42am 5 10 mph 1021.7mb 41f 35f
12:36am 6 8 mph 1021.8mb 41f 35f
12:30am 6 8 mph 1021.9mb 41f 35f
12:24am 6 11 mph 1021.9mb 41f 35f
12:18am 6 10 mph 1022mb 41f 35f
12:12am 6 10 mph 1021.9mb 41f 35f
12:06am 5 9 mph 1022mb 41f 35f
12:00am 6 10 mph 1022mb 41f 34f
Sun 03/29 11:54pm 6 8 mph 1022.2mb 41f 34f
11:48pm 5 6 mph 1022.1mb 41f 34f
11:42pm 5 9 mph 1022.3mb 41f 34f
11:36pm 6 8 mph 1022.3mb 41f 34f
11:30pm 6 8 mph 1022.3mb 41f 34f
11:24pm 5 7 mph 1022.3mb 41f 35f
11:18pm 6 8 mph 1022.4mb - -
11:12pm 6 9 mph 1022.5mb 41f 35f
11:06pm 6 7 mph 1022.7mb 41f 35f
11:00pm 6 8 mph 1022.9mb 41f 35f
10:54pm 6 8 mph 1022.9mb 41f 34f
10:48pm 5 7 mph 1022.9mb 42f 34f
10:42pm 5 6 mph 1023mb 42f 34f
10:36pm 5 6 mph 1023mb 42f 35f
10:30pm 5 7 mph 1023.2mb 42f 35f
10:24pm 5 6 mph 1023.2mb 42f 35f
10:18pm 5 7 mph 1023.4mb 42f 35f
10:12pm 3 6 mph 1023.4mb 42f 35f
10:06pm 5 6 mph 1023.4mb 42f 35f
10:00pm 5 7 mph 1023.5mb 42f 35f
9:54pm 3 5 mph 1023.5mb 42f 35f
9:48pm 5 6 mph 1023.5mb 42f 36f
9:42pm 5 6 mph 1023.4mb 42f 36f
9:36pm 5 6 mph 1023.4mb 42f 36f
9:30pm 3 6 mph 1023.5mb 42f 36f
9:24pm 3 5 mph 1023.6mb 42f 36f
9:18pm 5 7 mph 1023.7mb 41f 36f
9:12pm 5 6 mph 1023.8mb 41f 36f
9:06pm 3 5 mph 1023.7mb 41f 36f
9:00pm 3 6 mph 1023.7mb 41f 37f
8:54pm 3 6 mph 1023.8mb 41f 37f
8:48pm 3 5 mph 1023.8mb 41f 37f
8:42pm 2 5 mph 1023.8mb 42f 37f
8:36pm 3 5 mph 1023.7mb 42f 37f
8:30pm 5 7 mph 1023.8mb 42f 37f
8:24pm 3 5 mph 1023.6mb 42f 37f
8:18pm 3 6 mph 1023.5mb 42f 37f
8:12pm 5 6 mph 1023.6mb 42f 37f
8:06pm 2 3 mph 1023.8mb 42f 38f
8:00pm 3 5 mph 1023.5mb 41f 38f
7:54pm 5
mph
1023.3mb 41f 38f
7:48pm 3 5 mph 1023.4mb 41f 38f
7:42pm 2
mph
1023.6mb 41f 38f
7:36pm 2 3 mph 1023.7mb 41f 38f
7:30pm 1 3 mph 1023.8mb 41f 40f
7:24pm 3 5 mph 1024mb 42f 40f
7:18pm 7 8 mph 1024.2mb 42f 41f
7:12pm 9 11 mph 1024.2mb 42f 41f
7:06pm 11 13 mph 1024.2mb 42f 41f
7:00pm 13 14 mph 1024.3mb 42f 41f
6:54pm 14 15 mph 1024.3mb 42f 41f
6:48pm 11 14 mph 1024.2mb 42f 42f
6:42pm 13 15 mph 1024.2mb 42f 42f
6:36pm 14 16 mph 1024.3mb 42f 42f
6:30pm 14 18 mph 1024.2mb 42f 42f
6:24pm 13 15 mph 1024.3mb 42f 42f
6:18pm 14 16 mph 1024.3mb 42f 42f
6:12pm 13 15 mph 1024.4mb 42f 42f
6:06pm 15 17 mph 1024.4mb 42f 42f
6:00pm 11 14 mph 1024.3mb 42f 42f
5:54pm 13 15 mph 1024.3mb 42f 42f
5:42pm 6 8 mph 1024.2mb 42f 40f
5:36pm 7 9 mph 1024.2mb 42f 40f
5:30pm 6 7 mph 1024.3mb 42f 39f
5:24pm 7 8 mph 1024.3mb 42f 39f
5:18pm 7 8 mph 1024.3mb 42f 39f
5:12pm 6 8 mph 1024.3mb 42f 39f
5:06pm 6 7 mph 1024.3mb 42f 39f
5:00pm 7 8 mph 1024.2mb 42f 39f
4:54pm 7 8 mph 1024.3mb 42f 38f
4:48pm 8 9 mph 1024.3mb 42f 38f
4:42pm 8 10 mph 1024.4mb 42f 38f
4:36pm 9 10 mph 1024.4mb 42f 38f
4:30pm 8 9 mph 1024.5mb 42f 38f
4:24pm 9 11 mph 1024.5mb 42f 38f
4:18pm 8 10 mph 1024.7mb 42f 38f
4:12pm 8 10 mph 1024.8mb 42f 38f
4:06pm 8 9 mph 1024.9mb 42f 37f
4:00pm 7 9 mph 1025mb 42f 38f
3:54pm 7 9 mph 1025mb 42f 37f
3:48pm 11 14 mph 1025.2mb 42f 37f
3:42pm 10 11 mph 1025.2mb 42f 37f
3:36pm 10 13 mph 1025.3mb 42f 37f
3:30pm 11 13 mph 1025.3mb 42f 37f
3:24pm 11 14 mph 1025.3mb 42f 37f
3:12pm 13 14 mph 1025.4mb 42f 36f
3:06pm 13 15 mph 1025.5mb 42f 36f
3:00pm 11 14 mph 1025.5mb 42f 36f
2:54pm 13 16 mph 1025.6mb 42f 36f
2:48pm 10 16 mph 1025.6mb 42f 36f
2:42pm 11 15 mph 1025.7mb 42f 36f
2:36pm 11 14 mph 1025.7mb 42f 36f
2:30pm 14 15 mph 1025.8mb 42f 35f
2:24pm 14 17 mph 1025.9mb 42f 35f
2:18pm 14 18 mph 1026mb 42f 35f
2:12pm 14 16 mph 1026.1mb 42f 35f
2:06pm 15 18 mph 1026.2mb 42f 35f
2:00pm 17 20 mph 1026.3mb 42f 34f
1:54pm 16 18 mph 1026.4mb 42f 34f
1:48pm 15 17 mph 1026.6mb 42f 34f
1:42pm 17 20 mph 1026.7mb 41f 34f
1:36pm 17 20 mph 1026.7mb 41f 34f
1:30pm 17 22 mph 1026.9mb 41f 34f
1:24pm 17 21 mph 1026.9mb 41f 34f
1:18pm 17 21 mph 1027mb 41f 33f
1:12pm 16 18 mph 1027mb 41f 33f
1:06pm 16 18 mph 1027mb 41f 33f
1:00pm 17 20 mph 1027mb 41f 33f
12:54pm 18 22 mph 1027.1mb 41f 33f
12:48pm 18 22 mph 1027.1mb 41f 33f
12:42pm 17 22 mph 1027.1mb 41f 33f
12:36pm 20 23 mph 1027.1mb 41f 33f
12:30pm 20 24 mph 1027.3mb 41f 32f
12:24pm 8 18 mph 1027.4mb 41f 33f
12:18pm 21 24 mph 1027.4mb 41f 32f
12:06pm 17 20 mph 1027.5mb 41f 32f
12:00pm 20 24 mph 1027.5mb 41f 32f
11:54am 18 23 mph 1027.6mb 41f 31f
11:48am 17 20 mph 1027.6mb 41f 31f
11:42am 18 23 mph 1027.6mb 41f 31f
11:36am 20 23 mph 1027.5mb 41f 31f
11:30am 18 23 mph 1027.4mb 41f 31f
11:24am 22 24 mph 1027.5mb 41f 31f
11:18am 21 26 mph 1027.4mb 41f 31f
11:12am 20 25 mph 1027.3mb 41f 31f
11:06am 21 24 mph 1027.4mb 41f 31f
11:00am 21 25 mph 1027.4mb 41f 31f
10:54am 17 21 mph 1027.4mb 41f 31f
10:48am 18 23 mph 1027.5mb 41f 31f
10:42am 21 25 mph 1027.5mb 41f 31f
10:36am 21 25 mph 1027.4mb 41f 31f
10:30am 20 25 mph 1027.4mb 41f 30f
10:24am 22 25 mph 1027.5mb 41f 30f
10:18am 20 25 mph 1027.4mb 41f 31f
10:12am 22 26 mph 1027.4mb 41f 30f
10:06am 22 28 mph 1027.3mb 41f 30f
10:00am 22 26 mph 1027.3mb 41f 30f
9:54am 22 26 mph 1027.2mb 41f 30f
9:48am 20 26 mph 1027.3mb 41f 30f
9:42am 23 26 mph 1027.3mb 41f 30f
9:36am 21 24 mph 1027.3mb 41f 29f
9:30am 24 28 mph 1027.2mb 41f 30f
9:24am 21 26 mph 1027.1mb 41f 30f
9:18am 24 29 mph 1026.8mb 41f 30f
9:12am 24 28 mph 1026.9mb 41f 29f
9:06am 23 30 mph 1026.9mb 41f 29f
9:00am 24 31 mph 1026.7mb 41f 30f
8:54am 6 23 mph 1026.8mb 41f 31f
8:48am 23 30 mph 1026.7mb 41f 29f
8:42am 21 28 mph 1026.7mb 41f 30f
8:36am 23 25 mph 1026.6mb 41f 30f
8:30am 23 29 mph 1026.5mb 41f 30f
8:24am 20 24 mph 1026.4mb 41f 29f
8:18am 22 26 mph 1026.3mb 41f 29f
8:12am 24 26 mph 1026.4mb 41f 29f
8:06am 22 25 mph 1026.3mb 41f 29f
8:00am 24 29 mph 1026.3mb 41f 29f
7:54am 23 28 mph 1026.3mb 41f 29f
7:48am 23 28 mph 1026.2mb 41f 29f
7:42am 23 28 mph 1026mb 41f 29f
7:36am  -  mph 1026mb 41f 29f
7:30am  -  mph 1025.8mb 41f 29f
7:24am  -  mph 1025.8mb 41f 30f
7:18am  -  mph 1025.6mb - -
7:12am  -  mph 1025.5mb - -
1:36am 20 23 mph 1022.3mb 42f 31f
1:30am 21 24 mph 1022.3mb 42f 31f
1:24am 22 29 mph 1022.2mb 42f 31f
1:18am 22 26 mph 1022.2mb 42f 31f
1:12am 24 29 mph 1022.2mb 42f 31f
1:06am 18 22 mph 1022.2mb 42f 31f
1:00am 23 28 mph 1022.2mb 42f 32f
12:54am 20 25 mph 1022.1mb 42f 32f
12:48am 14 17 mph 1022.1mb 42f 31f
12:42am 14 18 mph 1022.1mb 42f 31f
12:36am 13 16 mph 1022.1mb 42f 31f
12:30am 14 16 mph 1022.1mb 42f 31f
12:24am 14 17 mph 1022mb 42f 31f
12:18am 15 18 mph 1022mb 42f 31f
12:12am 15 18 mph 1022mb 42f 31f
12:06am 13 15 mph 1021.9mb 42f 31f
12:00am 14 16 mph 1021.9mb 42f 31f
Sat 03/28 11:48pm 17 21 mph 1021.8mb 42f 32f
11:42pm 20 23 mph 1021.8mb 42f 32f
11:36pm 20 22 mph 1021.7mb 42f 32f
11:30pm 18 22 mph 1021.7mb 42f 32f
11:24pm 20 24 mph 1021.7mb 42f 32f
11:18pm 20 24 mph 1021.6mb 42f 32f
11:12pm 20 24 mph 1021.6mb 42f 32f
11:06pm 18 24 mph 1021.5mb 42f 32f
11:00pm 23 26 mph 1021.5mb 42f 32f
10:54pm 23 29 mph 1021.5mb 42f 32f
10:48pm 23 29 mph 1021.4mb 42f 32f
10:42pm 24 29 mph 1021.3mb 42f 33f
10:36pm 23 26 mph 1021.3mb 42f 32f
10:30pm 20 24 mph 1021.1mb 42f 33f
10:24pm 22 25 mph 1021.1mb 42f 33f
10:18pm 20 24 mph 1021.1mb 42f 33f
10:12pm 21 26 mph 1021mb 42f 33f
10:06pm 21 25 mph 1021mb 42f 33f
10:00pm 23 28 mph 1020.9mb 42f 33f
9:54pm 23 28 mph 1020.9mb 42f 33f
9:48pm 23 29 mph 1020.9mb 42f 33f
9:42pm 23 30 mph 1020.8mb 42f 33f
9:36pm 23 28 mph 1020.6mb 42f 33f
9:30pm 25 31 mph 1020.5mb 42f 33f
9:24pm 24 31 mph 1020.4mb 42f 34f
9:18pm 23 26 mph 1020.3mb 42f 33f
9:12pm 25 30 mph 1020.3mb 42f 33f
9:06pm 23 28 mph 1020.1mb 42f 34f
9:00pm 22 28 mph 1020mb 42f 34f
8:54pm 24 29 mph 1019.9mb 43f 33f
8:48pm 26 31 mph 1019.8mb 43f 33f
8:42pm 29 34 mph 1019.6mb 43f 33f
8:36pm 28 34 mph 1019.5mb 42f 33f
8:30pm 25 32 mph 1019.5mb 42f 34f
8:24pm 21 25 mph 1019.3mb 42f 33f
8:18pm 17 21 mph 1019.1mb 43f 33f
8:12pm 15 18 mph 1019mb 43f 33f
8:06pm 16 18 mph 1018.8mb 43f 32f
8:00pm 16 21 mph 1018.7mb 43f 32f
7:54pm 16 20 mph 1018.6mb 43f 32f
7:48pm 14 18 mph 1018.3mb 43f 33f
7:42pm 17 21 mph 1018.2mb 43f 33f
7:36pm 16 20 mph 1018.1mb 43f 33f
7:30pm 9 20 mph 1017.9mb 43f 33f
7:24pm 15 17 mph 1017.9mb 43f 33f
7:18pm 21 24 mph 1017.9mb 43f 34f
7:12pm 21 25 mph 1017.6mb 43f 34f
7:06pm 21 25 mph 1017.6mb 43f 34f
7:00pm 25 28 mph 1017.4mb 43f 34f
6:54pm 23 26 mph 1017.2mb 43f 35f
6:48pm 25 31 mph - - -
6:42pm 24 28 mph 1017mb 43f 35f
6:36pm 25 29 mph 1016.9mb 43f 35f
6:30pm 30 34 mph 1016.9mb 43f 34f
6:24pm 31 38 mph 1016.7mb 43f 35f
6:18pm 26 32 mph 1016.6mb 43f 35f
6:12pm 22 26 mph 1016.4mb 43f 35f
6:06pm 24 29 mph 1016.4mb 43f 34f
6:00pm 25 29 mph 1016.2mb 43f 34f
5:54pm 25 31 mph 1016mb 43f 35f
5:48pm 22 25 mph 1015.8mb 43f 35f
5:42pm 26 31 mph 1015.7mb 43f 35f
5:36pm 28 32 mph 1015.5mb 43f 35f
5:30pm 28 31 mph 1015.5mb 43f 35f
5:24pm 28 33 mph 1015.3mb 43f 35f
5:18pm 24 29 mph 1015.1mb 43f 35f
5:12pm 26 30 mph 1015mb 43f 35f
5:06pm 25 30 mph 1014.9mb 43f 35f
5:00pm 28 32 mph 1014.8mb 43f 35f
4:54pm 24 30 mph 1014.6mb 43f 35f
4:48pm 23 29 mph 1014.6mb 43f 35f
4:42pm 21 25 mph 1014.6mb 43f 35f
4:36pm 22 32 mph 1014.5mb 43f 35f
4:30pm 25 29 mph 1014.4mb 43f 34f
4:24pm 26 32 mph 1014.4mb 43f 34f
4:18pm 25 31 mph 1014.1mb 43f 35f
4:12pm 26 31 mph 1014.1mb 43f 34f
4:06pm 28 32 mph 1013.9mb 43f 34f
4:00pm 15 31 mph 1014.1mb 43f 35f
3:54pm 25 30 mph 1014mb 43f 34f
3:48pm 24 29 mph 1014mb 43f 34f
3:42pm 24 29 mph 1014mb 43f 34f
3:36pm 24 29 mph 1013.9mb 43f 34f
3:30pm 23 26 mph 1013.9mb 43f 34f
3:24pm 21 28 mph 1013.8mb 43f 34f
3:18pm 23 28 mph 1013.6mb 43f 34f
3:12pm 22 25 mph 1013.5mb 43f 35f
3:06pm 18 23 mph 1013.4mb 43f 34f
3:00pm 18 23 mph 1013.5mb 43f 34f
2:54pm 21 28 mph 1013.5mb 43f 34f
2:48pm 20 24 mph 1013.4mb 43f 34f
2:42pm 21 24 mph 1013.4mb 43f 33f
2:36pm 20 23 mph 1013.5mb 43f 33f
2:30pm 22 28 mph 1013.6mb 43f 33f
2:24pm 22 26 mph 1013.7mb 43f 33f
2:18pm 21 26 mph 1013.7mb 43f 33f
2:12pm 24 29 mph 1013.7mb 43f 32f
2:06pm 25 32 mph 1013.6mb 43f 33f
2:00pm 23 28 mph 1013.5mb 43f 33f
1:54pm 25 29 mph 1013.3mb 43f 33f
1:48pm 23 26 mph 1013.3mb 43f 34f
1:42pm 24 29 mph 1013.3mb 43f 34f
1:36pm 22 26 mph 1013.3mb 43f 34f
1:30pm 25 30 mph 1013.2mb 43f 33f
1:24pm 22 24 mph 1013.1mb 43f 33f
1:18pm 23 28 mph 1013.1mb 43f 33f
1:12pm 22 26 mph 1013mb 43f 33f
1:06pm 22 26 mph 1013mb 43f 34f
1:00pm 23 26 mph 1013mb 43f 33f
12:54pm 24 28 mph 1013mb 43f 34f
12:48pm 26 29 mph 1013mb 43f 33f
12:42pm 23 25 mph 1013mb 43f 33f
12:36pm 23 28 mph 1013mb 43f 34f
12:30pm 18 28 mph 1012.9mb 43f 34f
12:24pm 25 30 mph 1013mb 43f 34f
12:18pm 26 31 mph 1013mb 43f 33f
12:12pm 26 30 mph 1012.9mb 43f 33f
12:06pm 24 28 mph 1012.9mb 43f 34f
12:00pm 26 30 mph 1012.9mb 43f 34f
11:54am 28 33 mph 1012.9mb 43f 33f
11:48am 22 29 mph 1013mb 43f 34f
11:42am 28 33 mph 1013mb 43f 33f
11:36am 24 28 mph 1013mb 43f 34f
11:30am 26 32 mph 1012.9mb 43f 33f
11:24am 26 31 mph 1012.9mb 43f 33f
11:18am 25 33 mph 1012.8mb 43f 33f
11:12am 28 31 mph 1012.8mb 43f 33f
11:06am 28 33 mph 1012.7mb 43f 33f
11:00am 25 30 mph 1012.7mb 43f 34f
10:54am 26 32 mph 1012.8mb 43f 34f
10:48am 28 32 mph 1012.8mb 43f 33f
10:42am 29 37 mph 1012.8mb 43f 34f
10:36am 31 34 mph 1012.7mb 43f 34f
10:30am 28 32 mph 1012.6mb 43f 35f
10:24am 26 31 mph 1012.5mb 43f 35f
10:18am 28 31 mph 1012.4mb 43f 36f
10:12am 28 31 mph 1012.2mb 43f 37f
10:06am 24 31 mph 1012.1mb 43f 37f
10:00am 24 29 mph 1012mb 43f 37f
9:54am 24 28 mph 1012mb 43f 37f
9:48am 24 28 mph 1011.8mb 43f 37f
9:42am 21 24 mph 1011.8mb 43f 37f
9:36am 24 30 mph 1011.7mb 43f 37f
9:30am 25 30 mph 1011.5mb 43f 37f
9:24am 22 25 mph 1011.5mb 43f 37f
9:18am 24 28 mph 1011.3mb 43f 37f
9:12am 25 29 mph 1011.2mb 43f 37f
9:06am 26 30 mph 1011.1mb 43f 37f
9:00am 22 26 mph 1011mb 43f 37f
8:54am 13 28 mph 1011mb 43f 37f
8:48am 24 28 mph 1011mb 43f 37f
8:42am 22 26 mph 1011mb 43f 37f
8:36am 22 25 mph 1010.9mb 43f 37f
8:30am 22 25 mph 1010.9mb 43f 37f
8:24am 22 25 mph 1010.8mb 43f 37f
8:18am 22 25 mph 1010.8mb 43f 37f
8:12am 22 26 mph 1010.6mb 43f 37f
8:06am 22 25 mph 1010.6mb 43f 37f
8:00am 22 24 mph 1010.5mb 43f 37f
7:54am 24 28 mph 1010.3mb 43f 37f
7:48am 21 24 mph 1010.3mb 43f 38f
7:42am 21 24 mph 1010.3mb 43f 38f
7:36am 22 25 mph 1010.2mb 43f 38f
7:30am 22 28 mph 1010mb 43f 38f
7:24am 22 25 mph 1010mb 43f 38f
7:18am 24 28 mph 1009.9mb 43f 38f
7:12am 23 26 mph 1009.8mb 43f 38f
7:06am 23 25 mph 1009.6mb 43f 38f
7:00am 24 31 mph 1009.5mb 43f 39f
6:54am 24 29 mph 1009.4mb 43f 39f
6:48am 24 26 mph 1009.3mb 43f 39f
6:42am 22 25 mph 1009.2mb 43f 39f
6:36am 21 26 mph 1009.3mb 43f 39f
6:30am 22 25 mph 1009.2mb 43f 39f
6:24am 24 30 mph 1009.1mb 43f 39f
6:18am 23 28 mph 1009.1mb 43f 40f
6:12am 21 26 mph 1009mb 43f 40f
6:06am 23 28 mph 1008.9mb 43f 40f
6:00am 24 29 mph 1008.8mb 43f 40f
5:54am 24 28 mph 1008.8mb 43f 40f
5:48am 23 29 mph 1008.7mb 43f 40f
5:42am 25 29 mph 1008.6mb 43f 40f
5:36am 23 28 mph 1008.4mb 43f 40f
5:30am 23 29 mph 1008.4mb 43f 40f
5:24am 24 31 mph 1008.3mb 43f 40f
5:18am 25 29 mph 1008mb 43f 40f
5:12am 26 31 mph 1008mb 43f 40f
5:06am 24 29 mph 1007.8mb 43f 40f
5:00am 26 30 mph 1007.7mb 43f 40f
4:54am 21 23 mph 1007.7mb 43f 40f
4:48am 23 26 mph 1007.7mb 43f 41f
4:42am 24 29 mph 1007.7mb 43f 41f
4:36am 23 30 mph 1007.6mb 43f 41f
4:30am 21 24 mph 1007.8mb 44f 41f
4:24am 23 30 mph 1007.8mb 44f 41f
4:18am 22 25 mph 1007.8mb 44f 41f
4:12am 21 26 mph 1007.9mb 44f 41f
4:06am 21 24 mph 1007.8mb 44f 41f
4:00am 21 24 mph 1007.9mb 44f 41f
3:54am 20 24 mph 1007.9mb 44f 41f
3:48am 22 26 mph 1007.8mb 44f 41f
3:42am 20 24 mph 1007.8mb 44f 41f
3:36am 21 24 mph 1007.8mb 44f 41f
3:30am 22 24 mph 1008mb 44f 42f
3:24am 18 23 mph 1007.9mb 44f 42f
3:18am 18 23 mph 1008mb 44f 42f
3:12am 17 20 mph 1007.9mb 44f 42f
3:06am 15 18 mph 1008mb 43f 42f
3:00am 17 20 mph 1007.9mb 44f 42f
2:54am 18 22 mph 1007.8mb 43f 42f
2:48am 17 21 mph 1007.8mb 43f 42f
2:36am 15 18 mph 1007.9mb 43f 42f
2:30am 15 17 mph 1007.9mb 43f 42f
2:24am 13 15 mph 1007.8mb 43f 42f
2:18am 14 16 mph - - -
2:12am 14 16 mph 1007.8mb 43f 42f
2:06am 14 15 mph 1007.7mb 43f 42f
2:00am 13 15 mph 1007.8mb 43f 42f
1:54am 13 15 mph 1007.9mb 43f 42f
1:48am 11 15 mph 1007.8mb 43f 42f
1:42am 13 14 mph 1007.8mb 43f 42f
1:36am 11 14 mph 1008mb 43f 42f
1:30am 13 14 mph 1007.9mb 43f 42f
1:24am 13 15 mph 1008.1mb 43f 42f
1:18am 13 15 mph 1008.1mb 43f 43f
1:12am 14 15 mph 1008.2mb 43f 43f
1:06am 10 13 mph 1008.2mb 43f 42f
1:00am 11 14 mph 1008.3mb 43f 42f
12:54am 10 13 mph 1008.4mb 43f 42f
12:48am 11 14 mph 1008.4mb 43f 42f
12:42am 11 14 mph 1008.3mb 43f 42f
12:36am 11 14 mph 1008.3mb 43f 42f
12:30am 11 14 mph 1008.2mb 43f 42f
12:24am 11 13 mph 1008.3mb 43f 42f
12:18am 11 14 mph 1008.3mb 43f 43f
12:12am 11 13 mph 1008.5mb 43f 43f
12:06am 10 13 mph 1008.4mb 43f 43f
12:00am 9 10 mph 1008.6mb 43f 43f
Fri 03/27 11:54pm 8 10 mph 1008.4mb 43f 43f
11:48pm 8
mph
1008.5mb 43f 43f
11:42pm 8 9 mph 1008.6mb 43f 43f
11:36pm 8 9 mph 1008.6mb 43f 42f
11:30pm 7
mph
1008.7mb 43f 42f
11:24pm 5 7 mph 1008.7mb 43f 42f
11:18pm 8 11 mph 1008.6mb 43f 42f
11:12pm 7 9 mph 1008.5mb 43f 42f
11:06pm 6 8 mph 1008.6mb 43f 42f
11:00pm 6 7 mph 1008.4mb 43f 42f
10:54pm 8 9 mph 1008.4mb 43f 42f
10:48pm 8 9 mph 1008.1mb 43f 42f
10:42pm 8
mph
1008.2mb 43f 42f
10:36pm 9
mph
1008.2mb 43f 42f
10:30pm 8 9 mph 1008.1mb 43f 41f
10:24pm 8 9 mph 1008.3mb 43f 41f
10:18pm 8 9 mph 1008.4mb 43f 41f
10:12pm 6 7 mph 1008.4mb 43f 41f
10:06pm 7 8 mph 1008.6mb 43f 41f
10:00pm 7 8 mph 1008.6mb 43f 41f
9:54pm 6 7 mph 1008.6mb 43f 41f
9:48pm 6 7 mph 1008.6mb 43f 40f
9:42pm 6 7 mph 1008.6mb 43f 41f
9:36pm 6 8 mph 1008.6mb 43f 41f
9:30pm 6 7 mph 1008.6mb 43f 40f
9:24pm 5 6 mph 1008.8mb 43f 40f
9:18pm 5 6 mph 1008.7mb 43f 40f
9:12pm 3 6 mph 1008.7mb 43f 40f
9:06pm 3
mph
1008.8mb 43f 40f
9:00pm 6 7 mph 1008.8mb 43f 40f
8:54pm 5 6 mph 1008.7mb 43f 40f
8:48pm 2 3 mph 1008.4mb 43f 40f
8:42pm 3
mph
1008.2mb 43f 40f
8:36pm 2 3 mph 1008.1mb 43f 40f
8:30pm 3 5 mph 1008.1mb 43f 40f
8:24pm 3 5 mph 1008.2mb 43f 40f
8:18pm 2
mph
1008.2mb 43f 40f
8:12pm 2 3 mph 1008.1mb 43f 40f
8:06pm 2 3 mph 1008.4mb 43f 40f
8:00pm 2 3 mph 1008.4mb 43f 40f
7:54pm 3 5 mph 1008.5mb 43f 40f
7:48pm 5 6 mph 1008.6mb 43f 40f
7:42pm 3
mph
1008.3mb 43f 40f
7:36pm 2 3 mph 1008.2mb 43f 40f
7:30pm 2 3 mph 1008.6mb 43f 40f
7:24pm 2 3 mph 1008.1mb 43f 40f
7:18pm 5 6 mph 1008.2mb 43f 40f
7:12pm 2 5 mph 1007.8mb 43f 40f
7:06pm 3 6 mph 1008mb 43f 40f
7:00pm 3
mph
1008mb 43f 40f
6:54pm 2
mph
1008mb 43f 40f
6:48pm 2 3 mph 1008.2mb 43f 40f
6:36pm 6 7 mph 1008.3mb 43f 41f
6:30pm 5 6 mph 1008.1mb 43f 41f
6:24pm 7 8 mph 1008mb 43f 40f
6:18pm 6 7 mph 1007.7mb 43f 40f
6:12pm 7
mph
1007.8mb 43f 40f
6:06pm 3 6 mph 1007.6mb 43f 40f
6:00pm 3 6 mph 1007.6mb 43f 40f
5:54pm 5 6 mph 1007.7mb 43f 40f
5:48pm 7 8 mph 1007.5mb 43f 40f
5:36pm 7 8 mph 1007.2mb 43f 40f
5:30pm 7
mph
1007mb 43f 40f
5:24pm 8 9 mph 1006.8mb 43f 40f
5:18pm 8 10 mph 1006.8mb 43f 40f
5:12pm 9 10 mph 1006.9mb 43f 40f
5:06pm 10 11 mph 1006.9mb 43f 40f
5:00pm 9 10 mph 1007.1mb 43f 40f
4:54pm 10 11 mph 1007.2mb 43f 39f
4:48pm 9 10 mph 1007.3mb 43f 39f
4:42pm 10 13 mph 1007.2mb 43f 39f
4:36pm 10 11 mph 1007.2mb 43f 40f
4:30pm 13 14 mph 1007.2mb 43f 39f
4:24pm 10 13 mph 1007.5mb 43f 39f
4:18pm 11 14 mph 1007.5mb 43f 39f
4:12pm 11 14 mph 1008mb 43f 39f
4:06pm 10 13 mph 1008.2mb 43f 39f
4:00pm 13 18 mph 1008.4mb 43f 39f
3:54pm 8 16 mph 1008.6mb 43f 40f
3:48pm 15 17 mph 1008.6mb 43f 40f
3:42pm 15 18 mph 1008.7mb 43f 40f
3:36pm 15 20 mph 1008.3mb 43f 40f
3:30pm 17 22 mph 1008.4mb 43f 40f
3:24pm 16 18 mph 1008.1mb 43f 40f
3:18pm 15 18 mph 1008.2mb 43f 40f
3:12pm 13 16 mph 1008mb 43f 40f
3:06pm 14 17 mph 1008.2mb 43f 39f
3:00pm 14 16 mph 1008.4mb 43f 39f
2:54pm 16 21 mph 1008.3mb 43f 39f
2:48pm 20 24 mph 1008mb 43f 39f
2:42pm 17 20 mph 1008.2mb 43f 39f
2:36pm 15 17 mph 1008mb 43f 39f
2:30pm 17 20 mph 1008.1mb 43f 39f
2:24pm 15 18 mph 1008.3mb 43f 39f
2:18pm 17 21 mph 1008.5mb 43f 39f
2:12pm 18 22 mph 1008.7mb 43f 39f
2:06pm 17 20 mph 1008.6mb 43f 39f
2:00pm 18 21 mph 1008.4mb 43f 39f
1:54pm 17 22 mph 1008.5mb 43f 39f
1:48pm 20 22 mph 1008.3mb 43f 39f
1:42pm 17 20 mph 1008.1mb 43f 39f
1:36pm 20 23 mph 1008.1mb 43f 39f
1:30pm 18 22 mph 1008.2mb 43f 39f
1:24pm 18 22 mph 1008mb 43f 40f
1:18pm 22 23 mph 1008.1mb 43f 39f
1:12pm 20 24 mph 1008.1mb 43f 40f
1:06pm 22 25 mph 1008.4mb 43f 40f
1:00pm 22 25 mph 1008.3mb 43f 40f
12:54pm 17 22 mph 1008.2mb 43f 40f
12:48pm 18 23 mph 1008.2mb 43f 41f
12:42pm 18 22 mph 1007.9mb 43f 40f
12:36pm 21 23 mph 1007.8mb 42f 40f
12:30pm 13 22 mph 1007.8mb 42f 41f
12:24pm 17 21 mph 1007.9mb 42f 41f
12:18pm 17 21 mph 1008mb 42f 41f
12:12pm 20 22 mph 1008.3mb 42f 41f
12:06pm 18 23 mph 1008.3mb 42f 41f
12:00pm 15 18 mph 1008.4mb 43f 41f
11:54am 17 21 mph 1008.3mb 43f 41f
11:48am 17 20 mph 1007.9mb 43f 41f
11:42am 18 21 mph 1007.8mb 43f -
11:36am 17 21 mph 1007.8mb 42f 41f
11:30am 15 20 mph 1008.2mb 42f 41f
11:24am 16 20 mph 1008.3mb 43f 41f
11:18am 14 21 mph 1008.4mb 42f 41f
11:12am 17 21 mph 1008.2mb 42f 41f
11:06am 18 22 mph 1008.1mb 43f 41f
11:00am 20 22 mph 1008.2mb 43f 41f
10:54am 15 22 mph 1008.2mb 43f 41f
10:48am 18 23 mph 1008.3mb 43f 41f
10:42am 21 24 mph 1008.3mb 43f 40f
10:36am 18 23 mph 1008.3mb 43f 41f
10:30am 21 24 mph 1008.2mb 43f 41f
10:24am 21 25 mph 1008.2mb 43f 40f
10:18am 20 24 mph 1008.3mb 43f 41f
10:12am 22 25 mph 1008mb 43f 40f
10:06am 18 22 mph 1008.1mb 43f 41f
10:00am 18 23 mph 1008.3mb 43f 41f
9:54am 17 22 mph 1008.1mb 43f 41f
9:48am 16 21 mph 1007.9mb 43f 41f
9:42am 17 20 mph 1008mb 43f 41f
9:36am 16 20 mph 1008mb 43f 41f
9:30am 17 23 mph 1008.3mb 43f 41f
9:24am 17 20 mph 1008.1mb 43f 41f
9:18am 17 21 mph 1008mb 43f 41f
9:12am 16 20 mph 1008.2mb 43f 42f
9:06am 16 20 mph 1008.3mb 43f 42f
9:00am 14 17 mph 1008.3mb 43f 42f
8:54am 5 15 mph 1008.3mb 43f 42f
8:48am 14 16 mph 1008.2mb 43f 42f
8:42am 14 17 mph 1008.4mb 43f 42f
8:36am 14 17 mph 1008.3mb 43f 42f
8:30am 14 16 mph 1008.4mb 43f -
8:24am 15 17 mph 1008.1mb 43f 42f
8:18am 14 17 mph 1008mb 43f 42f
8:12am 14 17 mph 1008.1mb 43f 42f
8:06am 14 16 mph 1008.1mb 43f 42f
8:00am 15 17 mph 1008mb 43f 42f
7:54am 16 20 mph 1007.9mb 43f 42f
7:48am 16 20 mph 1007.8mb 43f 42f
7:42am 15 18 mph 1007.8mb 43f 42f
7:36am 17 23 mph 1007.5mb 43f 42f
7:30am 20 22 mph 1007.4mb 43f 42f
7:24am 21 25 mph 1007.6mb 43f 42f
7:18am 23 26 mph 1007.6mb 43f 42f
7:12am 21 26 mph 1007.8mb 43f 42f
7:06am 21 25 mph 1007.8mb 43f 42f